createdAt,value
2022-12-08T00:01:37.900Z,97701.63
2022-12-08T00:04:08.507Z,97707.63
2022-12-08T00:06:58.799Z,97700.81
2022-12-08T00:09:38.172Z,97696.63
2022-12-08T00:12:11.635Z,97702.41
2022-12-08T00:14:46.730Z,97688.34
2022-12-08T00:17:18.625Z,97690.09
2022-12-08T00:19:50.865Z,97687.19
2022-12-08T00:22:20.950Z,97674.25
2022-12-08T00:24:51.160Z,97672.44
2022-12-08T00:27:20.041Z,97668.75
2022-12-08T00:29:51.218Z,97665.81
2022-12-08T00:32:20.525Z,97667.28
2022-12-08T00:34:49.964Z,97663.72
2022-12-08T00:37:19.258Z,97662.41
2022-12-08T00:39:49.873Z,97665.66
2022-12-08T00:42:19.759Z,97661.59
2022-12-08T00:44:51.717Z,97660.50
2022-12-08T00:47:24.878Z,97652.56
2022-12-08T00:49:55.237Z,97660.00
2022-12-08T00:52:25.315Z,97655.81
2022-12-08T00:54:55.103Z,97656.63
2022-12-08T00:57:24.803Z,97641.25
2022-12-08T00:59:56.046Z,97642.19
2022-12-08T01:02:25.715Z,97637.66
2022-12-08T01:04:55.181Z,97646.38
2022-12-08T01:07:24.612Z,97647.88
2022-12-08T01:09:54.771Z,97638.81
2022-12-08T01:12:24.726Z,97649.31
2022-12-08T01:15:00.637Z,97643.19
2022-12-08T01:17:31.059Z,97642.19
2022-12-08T01:20:00.565Z,97636.72
2022-12-08T01:22:29.602Z,97627.50
2022-12-08T01:25:00.074Z,97623.28
2022-12-08T01:27:29.897Z,97627.34
2022-12-08T01:30:01.188Z,97631.53
2022-12-08T01:32:31.785Z,97629.13
2022-12-08T01:35:01.817Z,97631.03
2022-12-08T01:37:31.850Z,97627.50
2022-12-08T01:40:01.974Z,97629.94
2022-12-08T01:42:34.808Z,97643.19
2022-12-08T01:45:08.246Z,97639.63
2022-12-08T01:47:47.456Z,97637.03
2022-12-08T01:50:22.086Z,97633.63
2022-12-08T01:52:56.423Z,97636.88
2022-12-08T01:55:35.031Z,97632.53
2022-12-08T01:58:13.004Z,97622.31
2022-12-08T02:00:44.780Z,97628.94
2022-12-08T02:03:20.576Z,97630.56
2022-12-08T02:05:50.786Z,97635.09
2022-12-08T02:08:21.599Z,97627.66
2022-12-08T02:10:53.511Z,97626.69
2022-12-08T02:13:26.415Z,97633.78
2022-12-08T02:16:09.614Z,97629.44
2022-12-08T02:19:29.193Z,97625.72
2022-12-08T02:22:02.294Z,97617.94
2022-12-08T02:24:41.362Z,97613.91
2022-12-08T02:27:43.100Z,97615.81
2022-12-08T02:30:27.085Z,97616.31
2022-12-08T02:33:54.562Z,97615.69
2022-12-08T02:36:30.699Z,97605.66
2022-12-08T02:39:12.953Z,97599.47
2022-12-08T02:41:54.060Z,97603.69
2022-12-08T02:44:32.480Z,97594.81
2022-12-08T02:47:12.788Z,97588.84
2022-12-08T02:49:43.952Z,97588.84
2022-12-08T02:52:43.315Z,97591.25
2022-12-08T02:55:27.648Z,97582.03
2022-12-08T02:58:41.089Z,97576.84
2022-12-08T03:01:36.124Z,97566.50
2022-12-08T03:04:18.599Z,97573.16
2022-12-08T03:07:00.354Z,97575.72
2022-12-08T03:09:41.607Z,97562.47
2022-12-08T03:12:20.550Z,97562.28
2022-12-08T03:14:55.220Z,97565.84
2022-12-08T03:17:30.075Z,97560.03
2022-12-08T03:20:03.642Z,97561.66
2022-12-08T03:22:35.832Z,97566.47
2022-12-08T03:25:07.989Z,97558.72
2022-12-08T03:27:38.691Z,97552.59
2022-12-08T03:30:13.326Z,97547.72
2022-12-08T03:32:52.890Z,97552.72
2022-12-08T03:35:28.545Z,97546.78
2022-12-08T03:38:08.343Z,97540.94
2022-12-08T03:40:37.794Z,97540.78
2022-12-08T03:43:08.397Z,97536.44
2022-12-08T03:45:37.828Z,97533.16
2022-12-08T03:48:08.489Z,97533.50
2022-12-08T03:50:38.941Z,97534.94
2022-12-08T03:53:09.952Z,97529.59
2022-12-08T03:55:41.038Z,97527.81
2022-12-08T03:58:10.379Z,97526.69
2022-12-08T04:00:39.036Z,97520.69
2022-12-08T04:03:09.444Z,97512.94
2022-12-08T04:05:38.287Z,97517.16
2022-12-08T04:08:10.179Z,97502.59
2022-12-08T04:10:40.495Z,97511.16
2022-12-08T04:13:10.402Z,97502.91
2022-12-08T04:15:40.355Z,97502.09
2022-12-08T04:18:10.951Z,97501.13
2022-12-08T04:20:43.053Z,97502.09
2022-12-08T04:23:14.567Z,97506.97
2022-12-08T04:25:44.524Z,97498.53
2022-12-08T04:28:14.110Z,97505.66
2022-12-08T04:30:44.313Z,97505.66
2022-12-08T04:33:14.159Z,97495.63
2022-12-08T04:35:44.699Z,97499.50
2022-12-08T04:38:14.751Z,97498.19
2022-12-08T04:40:44.620Z,97502.75
2022-12-08T04:43:14.205Z,97500.78
2022-12-08T04:45:44.644Z,97512.56
2022-12-08T04:48:14.235Z,97509.00
2022-12-08T04:50:46.694Z,97508.34
2022-12-08T04:53:18.396Z,97505.09
2022-12-08T04:55:48.735Z,97503.16
2022-12-08T04:58:21.043Z,97495.56
2022-12-08T05:00:51.243Z,97501.69
2022-12-08T05:03:28.088Z,97502.00
2022-12-08T05:06:01.307Z,97500.53
2022-12-08T05:08:33.740Z,97501.50
2022-12-08T05:11:09.318Z,97499.75
2022-12-08T05:13:49.030Z,97501.50
2022-12-08T05:16:19.483Z,97495.84
2022-12-08T05:18:51.581Z,97495.84
2022-12-08T05:21:21.458Z,97502.63
2022-12-08T05:23:53.789Z,97494.72
2022-12-08T05:26:22.861Z,97501.50
2022-12-08T05:28:51.926Z,97490.34
2022-12-08T05:31:21.263Z,97495.53
2022-12-08T05:33:53.313Z,97503.94
2022-12-08T05:36:22.944Z,97489.22
2022-12-08T05:38:54.408Z,97490.03
2022-12-08T05:41:24.007Z,97485.19
2022-12-08T05:43:54.283Z,97483.88
2022-12-08T05:46:25.754Z,97480.34
2022-12-08T05:48:55.677Z,97481.94
2022-12-08T05:51:27.293Z,97482.75
2022-12-08T05:53:59.352Z,97476.63
2022-12-08T05:56:28.718Z,97478.25
2022-12-08T05:58:59.049Z,97478.06
2022-12-08T06:01:32.576Z,97467.75
2022-12-08T06:04:05.199Z,97476.47
2022-12-08T06:06:37.252Z,97477.44
2022-12-08T06:09:09.329Z,97469.69
2022-12-08T06:11:39.302Z,97482.13
2022-12-08T06:14:14.134Z,97482.56
2022-12-08T06:16:44.838Z,97487.72
2022-12-08T06:19:14.801Z,97483.66
2022-12-08T06:21:44.944Z,97486.25
2022-12-08T06:24:19.347Z,97487.69
2022-12-08T06:26:50.032Z,97487.84
2022-12-08T06:29:20.729Z,97488.50
2022-12-08T06:31:50.638Z,97484.44
2022-12-08T06:34:19.946Z,97485.75
2022-12-08T06:36:50.575Z,97483.16
2022-12-08T06:39:21.728Z,97483.28
2022-12-08T06:42:09.196Z,97480.56
2022-12-08T06:44:39.459Z,97483.47
2022-12-08T06:47:09.015Z,97482.16
2022-12-08T06:49:38.821Z,97484.56
2022-12-08T06:52:08.638Z,97478.59
2022-12-08T06:54:41.015Z,97479.72
2022-12-08T06:57:11.155Z,97482.16
2022-12-08T06:59:41.091Z,97482.16
2022-12-08T07:02:11.625Z,97479.56
2022-12-08T07:04:42.495Z,97479.56
2022-12-08T07:07:11.986Z,97470.19
2022-12-08T07:09:42.924Z,97481.34
2022-12-08T07:12:14.020Z,97477.94
2022-12-08T07:14:44.012Z,97481.16
2022-12-08T07:17:15.210Z,97486.19
2022-12-08T07:19:44.606Z,97491.22
2022-12-08T07:22:14.384Z,97482.66
2022-12-08T07:24:45.958Z,97483.47
2022-12-08T07:27:15.242Z,97480.88
2022-12-08T07:29:45.091Z,97478.31
2022-12-08T07:32:14.998Z,97475.06
2022-12-08T07:34:47.272Z,97471.81
2022-12-08T07:37:17.486Z,97468.25
2022-12-08T07:39:49.325Z,97471.50
2022-12-08T07:42:18.953Z,97473.78
2022-12-08T07:44:49.539Z,97464.41
2022-12-08T07:47:19.105Z,97471.81
2022-12-08T07:49:49.045Z,97466.34
2022-12-08T07:52:19.234Z,97471.66
2022-12-08T07:54:49.363Z,97468.75
2022-12-08T07:57:20.350Z,97460.38
2022-12-08T07:59:50.316Z,97464.72
2022-12-08T08:02:24.857Z,97469.56
2022-12-08T08:04:55.771Z,97461.69
2022-12-08T08:07:25.526Z,97457.97
2022-12-08T08:09:56.092Z,97461.84
2022-12-08T08:12:33.504Z,97453.16
2022-12-08T08:15:04.039Z,97458.09
2022-12-08T08:17:34.276Z,97462.16
2022-12-08T08:20:07.210Z,97460.91
2022-12-08T08:22:37.787Z,97463.63
2022-12-08T08:25:12.024Z,97461.03
2022-12-08T08:27:42.759Z,97464.13
2022-12-08T08:30:20.085Z,97470.91
2022-12-08T08:32:50.503Z,97463.16
2022-12-08T08:35:20.029Z,97465.25
2022-12-08T08:37:49.836Z,97462.53
2022-12-08T08:40:21.243Z,97469.31
2022-12-08T08:42:52.458Z,97470.94
2022-12-08T08:45:22.239Z,97465.47
2022-12-08T08:47:52.486Z,97458.34
2022-12-08T08:50:22.442Z,97472.72
2022-12-08T08:52:52.143Z,97465.66
2022-12-08T08:55:23.764Z,97459.34
2022-12-08T08:57:53.756Z,97466.94
2022-12-08T09:00:25.295Z,97463.06
2022-12-08T09:02:54.937Z,97456.78
2022-12-08T09:05:26.270Z,97461.63
2022-12-08T09:07:57.335Z,97465.69
2022-12-08T09:10:28.365Z,97458.56
2022-12-08T09:12:57.830Z,97454.88
2022-12-08T09:15:27.868Z,97456.63
2022-12-08T09:17:56.827Z,97451.47
2022-12-08T09:20:27.628Z,97457.78
2022-12-08T09:22:56.348Z,97454.53
2022-12-08T09:25:27.266Z,97448.22
2022-12-08T09:27:57.279Z,97445.97
2022-12-08T09:30:28.322Z,97445.50
2022-12-08T09:32:58.020Z,97442.56
2022-12-08T09:35:26.508Z,97448.38
2022-12-08T09:37:57.213Z,97451.97
2022-12-08T09:40:31.509Z,97440.34
2022-12-08T09:43:11.965Z,97433.56
2022-12-08T09:45:42.356Z,97437.75
2022-12-08T09:48:20.936Z,97438.41
2022-12-08T09:50:56.774Z,97440.66
2022-12-08T09:53:35.330Z,97430.94
2022-12-08T09:56:16.096Z,97430.16
2022-12-08T09:58:53.877Z,97432.59
2022-12-08T10:01:29.593Z,97425.78
2022-12-08T10:03:59.510Z,97422.25
2022-12-08T10:06:34.976Z,97428.69
2022-12-08T10:09:29.813Z,97420.00
2022-12-08T10:12:12.395Z,97416.41
2022-12-08T10:14:45.785Z,97420.00
2022-12-08T10:17:24.043Z,97419.66
2022-12-08T10:20:02.178Z,97413.97
2022-12-08T10:22:42.904Z,97422.22
2022-12-08T10:25:20.840Z,97411.41
2022-12-08T10:27:55.350Z,97418.00
2022-12-08T10:30:24.573Z,97411.25
2022-12-08T10:32:56.246Z,97405.75
2022-12-08T10:35:27.227Z,97404.13
2022-12-08T10:38:01.629Z,97407.50
2022-12-08T10:40:43.853Z,97394.44
2022-12-08T10:43:23.429Z,97394.09
2022-12-08T10:45:53.394Z,97388.13
2022-12-08T10:48:28.420Z,97392.16
2022-12-08T10:51:00.673Z,97381.97
2022-12-08T10:53:32.509Z,97381.97
2022-12-08T10:56:16.356Z,97377.75
2022-12-08T10:58:49.441Z,97369.19
2022-12-08T11:01:25.750Z,97372.75
2022-12-08T11:04:00.630Z,97366.94
2022-12-08T11:06:37.828Z,97363.69
2022-12-08T11:09:25.060Z,97361.56
2022-12-08T11:11:58.768Z,97364.50
2022-12-08T11:14:31.885Z,97358.97
2022-12-08T11:17:10.054Z,97354.28
2022-12-08T11:19:40.673Z,97347.81
2022-12-08T11:22:26.877Z,97342.66
2022-12-08T11:25:03.762Z,97344.56
2022-12-08T11:27:37.841Z,97340.38
2022-12-08T11:30:18.743Z,97335.50
2022-12-08T11:32:51.020Z,97329.69
2022-12-08T11:35:28.539Z,97332.91
2022-12-08T11:38:20.632Z,97328.06
2022-12-08T11:40:57.253Z,97321.88
2022-12-08T11:43:41.638Z,97322.53
2022-12-08T11:46:21.829Z,97325.47
2022-12-08T11:49:05.597Z,97327.72
2022-12-08T11:51:40.766Z,97324.66
2022-12-08T11:54:25.729Z,97320.94
2022-12-08T11:56:59.351Z,97321.28
2022-12-08T11:59:34.415Z,97315.00
2022-12-08T12:02:07.854Z,97320.78
2022-12-08T12:04:46.055Z,97317.41
2022-12-08T12:08:06.030Z,97311.94
2022-12-08T12:11:00.707Z,97311.59
2022-12-08T12:14:07.845Z,97297.69
2022-12-08T12:16:57.800Z,97296.88
2022-12-08T12:19:32.454Z,97297.03
2022-12-08T12:22:14.415Z,97296.06
2022-12-08T12:24:48.012Z,97288.63
2022-12-08T12:27:33.999Z,97293.34
2022-12-08T12:30:09.741Z,97305.16
2022-12-08T12:32:52.642Z,97299.81
2022-12-08T12:35:35.700Z,97290.75
2022-12-08T12:38:31.085Z,97292.53
2022-12-08T12:41:05.137Z,97290.28
2022-12-08T12:43:37.721Z,97297.91
2022-12-08T12:46:54.570Z,97287.53
2022-12-08T12:50:09.698Z,97289.94
2022-12-08T12:52:45.743Z,97290.63
2022-12-08T12:55:55.598Z,97293.69
2022-12-08T12:58:42.543Z,97290.00
2022-12-08T13:01:58.842Z,97290.13
2022-12-08T13:04:39.520Z,97286.09
2022-12-08T13:07:09.770Z,97285.16
2022-12-08T13:09:42.405Z,97286.09
2022-12-08T13:12:21.590Z,97287.69
2022-12-08T13:14:55.816Z,97289.81
2022-12-08T13:17:32.160Z,97276.88
2022-12-08T13:20:07.252Z,97278.31
2022-12-08T13:23:12.326Z,97277.19
2022-12-08T13:25:54.577Z,97278.97
2022-12-08T13:28:31.026Z,97268.91
2022-12-08T13:31:02.439Z,97270.03
2022-12-08T13:33:38.986Z,97265.34
2022-12-08T13:36:24.141Z,97270.50
2022-12-08T13:38:59.260Z,97267.56
2022-12-08T13:41:39.968Z,97266.91
2022-12-08T13:45:18.649Z,97266.44
2022-12-08T13:47:39.144Z,97261.88
2022-12-08T13:51:07.005Z,97265.94
2022-12-08T13:59:28.181Z,97253.28
2022-12-08T14:02:02.813Z,97248.75
2022-12-08T14:07:21.777Z,97258.59
2022-12-08T14:09:51.279Z,97256.19
2022-12-08T14:12:24.377Z,97254.41
2022-12-08T14:15:03.815Z,97258.59
2022-12-08T14:17:54.208Z,97260.19
2022-12-08T14:20:27.007Z,97257.16
2022-12-08T14:22:58.534Z,97257.03
2022-12-08T14:25:29.625Z,97253.28
2022-12-08T14:28:03.462Z,97252.66
2022-12-08T14:30:38.019Z,97251.84
2022-12-08T14:33:14.176Z,97252.31
2022-12-08T14:35:43.551Z,97252.94
2022-12-08T14:38:17.216Z,97252.63
2022-12-08T14:40:48.070Z,97263.13
2022-12-08T14:43:20.978Z,97255.72
2022-12-08T14:45:55.601Z,97256.38
2022-12-08T14:48:29.373Z,97262.34
2022-12-08T14:51:33.498Z,97258.16
2022-12-08T14:54:07.839Z,97260.44
2022-12-08T14:56:42.358Z,97260.78
2022-12-08T14:59:17.420Z,97264.34
2022-12-08T15:01:51.031Z,97270.19
2022-12-08T15:04:26.862Z,97271.81
2022-12-08T15:07:08.797Z,97271.13
2022-12-08T15:09:42.240Z,97274.03
2022-12-08T15:12:27.330Z,97270.16
2022-12-08T15:15:02.841Z,97265.00
2022-12-08T15:17:43.063Z,97267.41
2022-12-08T15:20:35.293Z,97266.59
2022-12-08T15:23:06.288Z,97265.16
2022-12-08T15:25:36.656Z,97265.81
2022-12-08T15:28:08.018Z,97264.66
2022-12-08T15:30:38.066Z,97274.22
2022-12-08T15:33:09.473Z,97268.53
2022-12-08T15:35:40.961Z,97269.34
2022-12-08T15:38:24.905Z,97265.34
2022-12-08T15:40:55.385Z,97263.56
2022-12-08T15:43:25.339Z,97263.06
2022-12-08T15:46:00.384Z,97258.88
2022-12-08T15:48:32.324Z,97252.56
2022-12-08T15:51:01.381Z,97254.53
2022-12-08T15:53:31.086Z,97253.72
2022-12-08T15:56:27.031Z,97255.19
2022-12-08T15:58:55.713Z,97254.72
2022-12-08T16:01:27.606Z,97268.63
2022-12-08T16:07:20.168Z,97264.75
2022-12-08T16:09:43.198Z,97262.50
2022-12-08T16:13:26.764Z,97268.81
2022-12-08T16:18:24.119Z,97254.75
2022-12-08T16:21:31.575Z,97259.16
2022-12-08T16:23:46.463Z,97252.81
2022-12-08T16:29:08.719Z,97252.19
2022-12-08T16:31:38.590Z,97244.13
2022-12-08T16:34:08.015Z,97248.81
2022-12-08T16:36:42.394Z,97243.63
2022-12-08T16:39:14.925Z,97245.75
2022-12-08T16:42:01.773Z,97245.91
2022-12-08T16:44:31.494Z,97235.41
2022-12-08T16:47:09.882Z,97243.31
2022-12-08T16:49:39.385Z,97240.56
2022-12-08T16:52:10.921Z,97247.66
2022-12-08T16:54:39.599Z,97241.53
2022-12-08T16:57:09.130Z,97239.28
2022-12-08T16:59:41.059Z,97227.78
2022-12-08T17:02:16.210Z,97227.97
2022-12-08T17:04:47.379Z,97226.03
2022-12-08T17:07:18.159Z,97224.88
2022-12-08T17:09:47.168Z,97222.28
2022-12-08T17:12:18.034Z,97220.34
2022-12-08T17:14:54.389Z,97219.53
2022-12-08T17:17:25.621Z,97220.50
2022-12-08T17:19:56.275Z,97222.75
2022-12-08T17:22:26.459Z,97218.59
2022-12-08T17:24:55.813Z,97214.38
2022-12-08T17:27:24.274Z,97214.38
2022-12-08T17:29:53.816Z,97217.94
2022-12-08T17:32:22.811Z,97221.50
2022-12-08T17:34:51.764Z,97221.50
2022-12-08T17:37:21.559Z,97220.69
2022-12-08T17:39:51.336Z,97214.06
2022-12-08T17:42:25.890Z,97213.91
2022-12-08T17:44:54.423Z,97216.63
2022-12-08T17:47:23.784Z,97210.22
2022-12-08T17:49:53.749Z,97218.13
2022-12-08T17:52:22.878Z,97211.97
2022-12-08T17:54:53.398Z,97205.03
2022-12-08T17:57:23.333Z,97206.97
2022-12-08T17:59:53.201Z,97212.47
2022-12-08T18:02:22.399Z,97215.06
2022-12-08T18:04:52.601Z,97206.97
2022-12-08T18:07:22.615Z,97210.38
2022-12-08T18:09:53.581Z,97211.50
2022-12-08T18:12:23.966Z,97216.69
2022-12-08T18:14:53.165Z,97222.19
2022-12-08T18:17:22.617Z,97222.81
2022-12-08T18:19:52.200Z,97225.72
2022-12-08T18:22:21.781Z,97216.34
2022-12-08T18:24:52.709Z,97220.72
2022-12-08T18:27:21.713Z,97226.88
2022-12-08T18:29:50.674Z,97227.03
2022-12-08T18:32:23.570Z,97226.72
2022-12-08T18:34:52.108Z,97217.84
2022-12-08T18:37:20.774Z,97222.84
2022-12-08T18:39:49.598Z,97222.03
2022-12-08T18:42:28.270Z,97220.91
2022-12-08T18:45:03.034Z,97223.47
2022-12-08T18:47:33.156Z,97225.44
2022-12-08T18:50:03.451Z,97231.91
2022-12-08T18:52:33.065Z,97228.31
2022-12-08T18:55:07.021Z,97228.97
2022-12-08T18:57:39.547Z,97220.56
2022-12-08T19:00:12.881Z,97226.41
2022-12-08T19:02:42.122Z,97230.91
2022-12-08T19:05:14.006Z,97234.47
2022-12-08T19:07:43.827Z,97230.09
2022-12-08T19:10:13.770Z,97229.31
2022-12-08T19:12:45.224Z,97231.72
2022-12-08T19:15:14.377Z,97233.16
2022-12-08T19:17:43.379Z,97233.50
2022-12-08T19:20:14.804Z,97231.91
2022-12-08T19:22:44.999Z,97234.00
2022-12-08T19:25:14.524Z,97234.00
2022-12-08T19:27:45.995Z,97227.53
2022-12-08T19:30:17.708Z,97233.53
2022-12-08T19:32:47.119Z,97233.19
2022-12-08T19:35:16.878Z,97226.06
2022-12-08T19:37:45.802Z,97228.66
2022-12-08T19:40:33.751Z,97227.84
2022-12-08T19:43:22.023Z,97219.28
2022-12-08T19:45:50.941Z,97216.69
2022-12-08T19:48:20.795Z,97219.28
2022-12-08T19:50:49.338Z,97223.97
2022-12-08T19:53:20.120Z,97219.59
2022-12-08T19:55:49.955Z,97213.16
2022-12-08T19:58:21.202Z,97210.09
2022-12-08T20:00:50.877Z,97210.88
2022-12-08T20:03:23.138Z,97205.72
2022-12-08T20:05:54.018Z,97200.06
2022-12-08T20:08:24.091Z,97199.13
2022-12-08T20:10:56.070Z,97202.03
2022-12-08T20:13:45.955Z,97203.47
2022-12-08T20:16:16.793Z,97197.19
2022-12-08T20:18:47.776Z,97196.06
2022-12-08T20:21:17.796Z,97202.19
2022-12-08T20:23:49.689Z,97202.19
2022-12-08T20:26:22.036Z,97200.41
2022-12-08T20:28:52.862Z,97199.44
2022-12-08T20:31:24.932Z,97209.78
2022-12-08T20:33:53.995Z,97213.19
2022-12-08T20:36:23.791Z,97207.81
2022-12-08T20:38:54.438Z,97211.88
2022-12-08T20:41:28.261Z,97205.91
2022-12-08T20:44:00.133Z,97204.47
2022-12-08T20:46:30.212Z,97213.03
2022-12-08T20:49:01.535Z,97211.88
2022-12-08T20:51:32.245Z,97213.34
2022-12-08T20:54:02.442Z,97208.97
2022-12-08T20:56:32.780Z,97212.22
2022-12-08T20:59:03.901Z,97218.81
2022-12-08T21:01:33.181Z,97213.34
2022-12-08T21:04:03.032Z,97204.47
2022-12-08T21:06:33.345Z,97210.09
2022-12-08T21:09:02.909Z,97204.31
2022-12-08T21:11:33.224Z,97209.16
2022-12-08T21:14:03.930Z,97206.38
2022-12-08T21:16:33.512Z,97200.25
2022-12-08T21:19:02.992Z,97202.34
2022-12-08T21:21:31.991Z,97203.50
2022-12-08T21:24:01.132Z,97201.06
2022-12-08T21:26:30.714Z,97205.41
2022-12-08T21:29:00.912Z,97203.31
2022-12-08T21:31:33.636Z,97206.41
2022-12-08T21:34:04.124Z,97208.66
2022-12-08T21:36:34.047Z,97205.13
2022-12-08T21:39:04.393Z,97207.19
2022-12-08T21:41:51.325Z,97207.19
2022-12-08T21:44:20.578Z,97211.56
2022-12-08T21:46:52.175Z,97215.13
2022-12-08T21:49:21.132Z,97213.34
2022-12-08T21:51:50.140Z,97208.34
2022-12-08T21:54:19.647Z,97216.91
2022-12-08T21:56:50.415Z,97215.13
2022-12-08T21:59:20.996Z,97217.84
2022-12-08T22:01:52.545Z,97221.09
2022-12-08T22:04:24.651Z,97223.03
2022-12-08T22:06:54.496Z,97225.63
2022-12-08T22:09:23.286Z,97220.44
2022-12-08T22:11:53.398Z,97220.28
2022-12-08T22:14:22.471Z,97219.47
2022-12-08T22:16:52.972Z,97215.94
2022-12-08T22:19:24.440Z,97215.75
2022-12-08T22:21:54.773Z,97217.53
2022-12-08T22:24:23.728Z,97213.19
2022-12-08T22:26:52.939Z,97218.34
2022-12-08T22:29:22.555Z,97212.22
2022-12-08T22:31:53.090Z,97218.19
2022-12-08T22:34:22.065Z,97209.97
2022-12-08T22:36:51.477Z,97216.22
2022-12-08T22:39:20.599Z,97205.59
2022-12-08T22:41:50.124Z,97214.50
2022-12-08T22:44:20.485Z,97209.81
2022-12-08T22:46:50.265Z,97205.41
2022-12-08T22:49:20.197Z,97205.28
2022-12-08T22:51:48.594Z,97201.06
2022-12-08T22:54:17.995Z,97201.88
2022-12-08T22:56:46.933Z,97201.56
2022-12-08T22:59:15.552Z,97190.91
2022-12-08T23:01:45.377Z,97198.34
2022-12-08T23:04:17.664Z,97194.78
2022-12-08T23:06:48.564Z,97196.72
2022-12-08T23:09:19.602Z,97188.00
2022-12-08T23:11:48.751Z,97193.50
2022-12-08T23:14:18.904Z,97180.09
2022-12-08T23:16:48.708Z,97189.75
2022-12-08T23:19:17.538Z,97179.09
2022-12-08T23:21:47.920Z,97179.59
2022-12-08T23:24:16.844Z,97180.56
2022-12-08T23:26:46.359Z,97180.72
2022-12-08T23:29:16.010Z,97182.81
2022-12-08T23:31:44.777Z,97179.75
2022-12-08T23:34:14.500Z,97176.06
2022-12-08T23:36:44.417Z,97175.72
2022-12-08T23:39:15.219Z,97167.34
2022-12-08T23:41:45.757Z,97169.13
2022-12-08T23:44:14.401Z,97168.78
2022-12-08T23:46:42.922Z,97168.63
2022-12-08T23:49:12.437Z,97167.03
2022-12-08T23:51:43.041Z,97160.88
2022-12-08T23:54:14.647Z,97161.84
2022-12-08T23:56:43.647Z,97159.28
2022-12-08T23:59:13.639Z,97153.13
